sensor_id;sensor_type;location;lat;lon;timestamp;pressure;altitude;pressure_sealevel;temperature;humidity
44140;BME280;29803;51.048;4.686;2023-12-29T00:01:40;100964.53;;;12.05;100.00
44140;BME280;29803;51.048;4.686;2023-12-29T00:04:10;100961.97;;;12.04;100.00
44140;BME280;29803;51.048;4.686;2023-12-29T00:06:41;100956.94;;;12.09;100.00
44140;BME280;29803;51.048;4.686;2023-12-29T00:09:11;100956.13;;;12.00;100.00
44140;BME280;29803;51.048;4.686;2023-12-29T00:11:42;100940.34;;;11.89;100.00
44140;BME280;29803;51.048;4.686;2023-12-29T00:14:13;100935.59;;;12.07;100.00
44140;BME280;29803;51.048;4.686;2023-12-29T00:16:44;100931.63;;;11.95;100.00
44140;BME280;29803;51.048;4.686;2023-12-29T00:19:14;100942.19;;;11.97;100.00
44140;BME280;29803;51.048;4.686;2023-12-29T00:21:45;100937.00;;;11.95;100.00
44140;BME280;29803;51.048;4.686;2023-12-29T00:24:15;100935.16;;;11.96;100.00
44140;BME280;29803;51.048;4.686;2023-12-29T00:26:47;100931.44;;;11.97;100.00
44140;BME280;29803;51.048;4.686;2023-12-29T00:29:17;100929.59;;;11.89;100.00
44140;BME280;29803;51.048;4.686;2023-12-29T00:31:48;100902.25;;;11.85;100.00
44140;BME280;29803;51.048;4.686;2023-12-29T00:34:18;100905.41;;;11.89;100.00
44140;BME280;29803;51.048;4.686;2023-12-29T00:36:49;100910.44;;;11.92;100.00
44140;BME280;29803;51.048;4.686;2023-12-29T00:39:19;100918.50;;;11.92;100.00
44140;BME280;29803;51.048;4.686;2023-12-29T00:41:58;100907.25;;;11.97;100.00
44140;BME280;29803;51.048;4.686;2023-12-29T00:44:29;100904.06;;;11.93;100.00
44140;BME280;29803;51.048;4.686;2023-12-29T00:46:59;100906.94;;;11.83;100.00
44140;BME280;29803;51.048;4.686;2023-12-29T00:49:30;100915.84;;;11.84;100.00
44140;BME280;29803;51.048;4.686;2023-12-29T00:52:01;100912.63;;;11.88;100.00
44140;BME280;29803;51.048;4.686;2023-12-29T00:54:33;100926.09;;;11.72;100.00
44140;BME280;29803;51.048;4.686;2023-12-29T00:57:03;100907.09;;;11.74;100.00
44140;BME280;29803;51.048;4.686;2023-12-29T00:59:37;100917.53;;;11.68;100.00
44140;BME280;29803;51.048;4.686;2023-12-29T01:02:08;100914.19;;;11.66;100.00
44140;BME280;29803;51.048;4.686;2023-12-29T01:04:38;100896.72;;;11.71;100.00
44140;BME280;29803;51.048;4.686;2023-12-29T01:07:10;100880.59;;;11.71;100.00
44140;BME280;29803;51.048;4.686;2023-12-29T01:09:40;100892.50;;;11.68;100.00
44140;BME280;29803;51.048;4.686;2023-12-29T01:12:11;100890.31;;;11.72;100.00
44140;BME280;29803;51.048;4.686;2023-12-29T01:14:41;100886.78;;;11.71;100.00
44140;BME280;29803;51.048;4.686;2023-12-29T01:17:12;100888.44;;;11.80;100.00
44140;BME280;29803;51.048;4.686;2023-12-29T01:19:42;100892.13;;;11.79;100.00
44140;BME280;29803;51.048;4.686;2023-12-29T01:22:13;100877.91;;;11.71;100.00
44140;BME280;29803;51.048;4.686;2023-12-29T01:24:43;100878.56;;;11.73;100.00
44140;BME280;29803;51.048;4.686;2023-12-29T01:27:13;100900.56;;;11.76;100.00
44140;BME280;29803;51.048;4.686;2023-12-29T01:29:44;100894.19;;;11.69;100.00
44140;BME280;29803;51.048;4.686;2023-12-29T01:32:15;100892.16;;;11.87;100.00
44140;BME280;29803;51.048;4.686;2023-12-29T01:34:45;100887.94;;;11.77;100.00
44140;BME280;29803;51.048;4.686;2023-12-29T01:37:16;100897.19;;;11.90;100.00
44140;BME280;29803;51.048;4.686;2023-12-29T01:39:46;100884.25;;;11.78;100.00
44140;BME280;29803;51.048;4.686;2023-12-29T01:42:17;100881.06;;;11.82;100.00
44140;BME280;29803;51.048;4.686;2023-12-29T01:44:47;100870.94;;;11.92;100.00
44140;BME280;29803;51.048;4.686;2023-12-29T01:47:22;100877.38;;;11.75;100.00
44140;BME280;29803;51.048;4.686;2023-12-29T01:49:53;100881.06;;;11.82;100.00
44140;BME280;29803;51.048;4.686;2023-12-29T01:52:24;100889.97;;;11.83;100.00
44140;BME280;29803;51.048;4.686;2023-12-29T01:54:54;100881.06;;;11.90;100.00
44140;BME280;29803;51.048;4.686;2023-12-29T01:57:26;100876.19;;;11.78;100.00
44140;BME280;29803;51.048;4.686;2023-12-29T01:59:56;100884.44;;;11.76;100.00
44140;BME280;29803;51.048;4.686;2023-12-29T02:02:27;100874.16;;;11.88;100.00
44140;BME280;29803;51.048;4.686;2023-12-29T02:04:58;100886.78;;;11.87;100.00
44140;BME280;29803;51.048;4.686;2023-12-29T02:07:32;100887.59;;;11.88;100.00
44140;BME280;29803;51.048;4.686;2023-12-29T02:10:21;100903.72;;;11.88;100.00
44140;BME280;29803;51.048;4.686;2023-12-29T02:12:53;100891.44;;;11.93;100.00
44140;BME280;29803;51.048;4.686;2023-12-29T02:15:27;100881.53;;;11.94;100.00
44140;BME280;29803;51.048;4.686;2023-12-29T02:18:10;100868.09;;;11.94;100.00
44140;BME280;29803;51.048;4.686;2023-12-29T02:20:45;100861.53;;;11.97;100.00
44140;BME280;29803;51.048;4.686;2023-12-29T02:23:16;100874.16;;;11.88;100.00
44140;BME280;29803;51.048;4.686;2023-12-29T02:25:46;100870.44;;;11.97;100.00
44140;BME280;29803;51.048;4.686;2023-12-29T02:28:33;100844.97;;;11.85;100.00
44140;BME280;29803;51.048;4.686;2023-12-29T02:31:07;100860.06;;;11.86;100.00
44140;BME280;29803;51.048;4.686;2023-12-29T02:34:00;100859.38;;;11.92;100.00
44140;BME280;29803;51.048;4.686;2023-12-29T02:36:34;100860.38;;;11.91;100.00
44140;BME280;29803;51.048;4.686;2023-12-29T02:39:12;100847.81;;;11.83;100.00
44140;BME280;29803;51.048;4.686;2023-12-29T02:41:43;100865.78;;;11.83;100.00
44140;BME280;29803;51.048;4.686;2023-12-29T02:44:13;100864.44;;;11.87;100.00
44140;BME280;29803;51.048;4.686;2023-12-29T02:46:44;100894.19;;;11.85;100.00
44140;BME280;29803;51.048;4.686;2023-12-29T02:49:14;100865.78;;;11.83;100.00
44140;BME280;29803;51.048;4.686;2023-12-29T02:51:46;100891.31;;;11.87;100.00
44140;BME280;29803;51.048;4.686;2023-12-29T02:54:18;100886.44;;;11.82;100.00
44140;BME280;29803;51.048;4.686;2023-12-29T02:56:49;100881.38;;;11.79;100.00
44140;BME280;29803;51.048;4.686;2023-12-29T02:59:19;100895.69;;;11.72;100.00
44140;BME280;29803;51.048;4.686;2023-12-29T03:01:50;100904.44;;;11.82;100.00
44140;BME280;29803;51.048;4.686;2023-12-29T03:04:20;100885.44;;;11.75;100.00
44140;BME280;29803;51.048;4.686;2023-12-29T03:06:51;100891.50;;;11.69;100.00
44140;BME280;29803;51.048;4.686;2023-12-29T03:09:22;100892.69;;;11.66;100.00
44140;BME280;29803;51.048;4.686;2023-12-29T03:11:52;100873.38;;;11.63;100.00
44140;BME280;29803;51.048;4.686;2023-12-29T03:14:23;100877.41;;;11.59;100.00
44140;BME280;29803;51.048;4.686;2023-12-29T03:16:53;100882.44;;;11.62;100.00
44140;BME280;29803;51.048;4.686;2023-12-29T03:19:24;100868.50;;;11.58;100.00
44140;BME280;29803;51.048;4.686;2023-12-29T03:21:59;100863.66;;;11.62;100.00
44140;BME280;29803;51.048;4.686;2023-12-29T03:24:30;100877.59;;;11.65;100.00
44140;BME280;29803;51.048;4.686;2023-12-29T03:27:01;100858.44;;;11.60;100.00
44140;BME280;29803;51.048;4.686;2023-12-29T03:29:31;100845.88;;;11.53;100.00
44140;BME280;29803;51.048;4.686;2023-12-29T03:32:02;100849.72;;;11.58;100.00
44140;BME280;29803;51.048;4.686;2023-12-29T03:34:33;100859.44;;;11.59;100.00
44140;BME280;29803;51.048;4.686;2023-12-29T03:37:04;100853.41;;;11.57;100.00
44140;BME280;29803;51.048;4.686;2023-12-29T03:39:34;100840.00;;;11.49;100.00
44140;BME280;29803;51.048;4.686;2023-12-29T03:42:05;100830.03;;;11.66;100.00
44140;BME280;29803;51.048;4.686;2023-12-29T03:44:36;100858.97;;;11.48;100.00
44140;BME280;29803;51.048;4.686;2023-12-29T03:47:06;100831.78;;;11.51;100.00
44140;BME280;29803;51.048;4.686;2023-12-29T03:49:37;100824.88;;;11.48;100.00
44140;BME280;29803;51.048;4.686;2023-12-29T03:52:07;100847.41;;;11.47;100.00
44140;BME280;29803;51.048;4.686;2023-12-29T03:54:38;100835.00;;;11.38;100.00
44140;BME280;29803;51.048;4.686;2023-12-29T03:57:08;100827.94;;;11.45;100.00
44140;BME280;29803;51.048;4.686;2023-12-29T03:59:39;100833.47;;;11.44;100.00
44140;BME280;29803;51.048;4.686;2023-12-29T04:02:09;100833.97;;;11.39;100.00
44140;BME280;29803;51.048;4.686;2023-12-29T04:04:39;100841.88;;;11.40;100.00
44140;BME280;29803;51.048;4.686;2023-12-29T04:07:10;100841.06;;;11.32;100.00
44140;BME280;29803;51.048;4.686;2023-12-29T04:09:40;100837.66;;;11.46;100.00
44140;BME280;29803;51.048;4.686;2023-12-29T04:12:11;100846.06;;;11.43;100.00
44140;BME280;29803;51.048;4.686;2023-12-29T04:14:41;100846.94;;;11.35;100.00
44140;BME280;29803;51.048;4.686;2023-12-29T04:17:12;100855.63;;;11.37;100.00
44140;BME280;29803;51.048;4.686;2023-12-29T04:19:44;100843.75;;;11.32;100.00
44140;BME280;29803;51.048;4.686;2023-12-29T04:22:14;100848.47;;;11.30;100.00
44140;BME280;29803;51.048;4.686;2023-12-29T04:24:45;100847.44;;;11.31;100.00
44140;BME280;29803;51.048;4.686;2023-12-29T04:27:17;100853.47;;;11.33;100.00
44140;BME280;29803;51.048;4.686;2023-12-29T04:29:47;100851.78;;;11.40;100.00
44140;BME280;29803;51.048;4.686;2023-12-29T04:32:19;100853.97;;;11.36;100.00
44140;BME280;29803;51.048;4.686;2023-12-29T04:34:49;100847.44;;;11.31;100.00
44140;BME280;29803;51.048;4.686;2023-12-29T04:37:20;100848.41;;;11.38;100.00
44140;BME280;29803;51.048;4.686;2023-12-29T04:39:50;100860.88;;;11.31;100.00
44140;BME280;29803;51.048;4.686;2023-12-29T04:42:21;100852.63;;;11.32;100.00
44140;BME280;29803;51.048;4.686;2023-12-29T04:44:51;100864.06;;;11.26;100.00
44140;BME280;29803;51.048;4.686;2023-12-29T04:47:22;100848.47;;;11.22;100.00
44140;BME280;29803;51.048;4.686;2023-12-29T04:49:52;100851.16;;;11.22;100.00
44140;BME280;29803;51.048;4.686;2023-12-29T04:52:22;100851.47;;;11.27;100.00
44140;BME280;29803;51.048;4.686;2023-12-29T04:54:53;100865.88;;;11.34;100.00
44140;BME280;29803;51.048;4.686;2023-12-29T04:57:23;100863.03;;;11.35;100.00
44140;BME280;29803;51.048;4.686;2023-12-29T04:59:54;100858.00;;;11.24;100.00
44140;BME280;29803;51.048;4.686;2023-12-29T05:02:24;100858.00;;;11.24;100.00
44140;BME280;29803;51.048;4.686;2023-12-29T05:04:55;100863.91;;;11.11;100.00
44140;BME280;29803;51.048;4.686;2023-12-29T05:07:26;100872.28;;;11.17;100.00
44140;BME280;29803;51.048;4.686;2023-12-29T05:09:57;100862.38;;;11.17;100.00
44140;BME280;29803;51.048;4.686;2023-12-29T05:12:27;100849.94;;;11.24;100.00
44140;BME280;29803;51.048;4.686;2023-12-29T05:14:58;100866.09;;;11.08;100.00
44140;BME280;29803;51.048;4.686;2023-12-29T05:17:28;100858.22;;;11.14;100.00
44140;BME280;29803;51.048;4.686;2023-12-29T05:19:59;100854.16;;;11.19;100.00
44140;BME280;29803;51.048;4.686;2023-12-29T05:22:29;100849.81;;;11.18;100.00
44140;BME280;29803;51.048;4.686;2023-12-29T05:25:00;100852.81;;;11.23;100.00
44140;BME280;29803;51.048;4.686;2023-12-29T05:27:31;100851.66;;;11.25;100.00
44140;BME280;29803;51.048;4.686;2023-12-29T05:30:02;100842.75;;;11.25;100.00
44140;BME280;29803;51.048;4.686;2023-12-29T05:32:33;100842.06;;;11.31;100.00
44140;BME280;29803;51.048;4.686;2023-12-29T05:35:04;100841.91;;;11.24;100.00
44140;BME280;29803;51.048;4.686;2023-12-29T05:37:34;100846.94;;;11.19;100.00
44140;BME280;29803;51.048;4.686;2023-12-29T05:40:05;100836.19;;;11.19;100.00
44140;BME280;29803;51.048;4.686;2023-12-29T05:42:36;100841.94;;;11.16;100.00
44140;BME280;29803;51.048;4.686;2023-12-29T05:45:07;100833.69;;;11.18;100.00
44140;BME280;29803;51.048;4.686;2023-12-29T05:47:37;100843.09;;;11.22;100.00
44140;BME280;29803;51.048;4.686;2023-12-29T05:50:08;100840.72;;;11.27;100.00
44140;BME280;29803;51.048;4.686;2023-12-29T05:52:39;100850.81;;;11.25;100.00
44140;BME280;29803;51.048;4.686;2023-12-29T05:55:09;100843.09;;;11.22;100.00
44140;BME280;29803;51.048;4.686;2023-12-29T05:57:40;100833.00;;;11.32;100.00
44140;BME280;29803;51.048;4.686;2023-12-29T06:00:11;100845.78;;;11.30;100.00
44140;BME280;29803;51.048;4.686;2023-12-29T06:02:44;100851.16;;;11.22;100.00
44140;BME280;29803;51.048;4.686;2023-12-29T06:05:15;100841.06;;;11.24;100.00
44140;BME280;29803;51.048;4.686;2023-12-29T06:07:46;100859.53;;;11.19;100.00
44140;BME280;29803;51.048;4.686;2023-12-29T06:10:16;100846.94;;;11.19;100.00
44140;BME280;29803;51.048;4.686;2023-12-29T06:12:47;100859.72;;;11.17;100.00
44140;BME280;29803;51.048;4.686;2023-12-29T06:15:17;100844.59;;;11.16;100.00
44140;BME280;29803;51.048;4.686;2023-12-29T06:17:48;100841.41;;;11.12;100.00
44140;BME280;29803;51.048;4.686;2023-12-29T06:20:18;100864.56;;;11.13;100.00
44140;BME280;29803;51.048;4.686;2023-12-29T06:22:49;100854.19;;;11.10;100.00
44140;BME280;29803;51.048;4.686;2023-12-29T06:25:19;100848.47;;;10.97;100.00
44140;BME280;29803;51.048;4.686;2023-12-29T06:27:50;100838.41;;;10.83;100.00
44140;BME280;29803;51.048;4.686;2023-12-29T06:30:20;100847.97;;;10.94;100.00
44140;BME280;29803;51.048;4.686;2023-12-29T06:32:51;100846.66;;;10.89;100.00
44140;BME280;29803;51.048;4.686;2023-12-29T06:35:22;100851.84;;;10.91;100.00
44140;BME280;29803;51.048;4.686;2023-12-29T06:37:53;100843.28;;;10.87;100.00
44140;BME280;29803;51.048;4.686;2023-12-29T06:40:23;100847.47;;;10.82;100.00
44140;BME280;29803;51.048;4.686;2023-12-29T06:42:54;100844.78;;;10.74;100.00
44140;BME280;29803;51.048;4.686;2023-12-29T06:45:24;100846.81;;;10.80;100.00
44140;BME280;29803;51.048;4.686;2023-12-29T06:47:55;100845.28;;;10.69;100.00
44140;BME280;29803;51.048;4.686;2023-12-29T06:50:25;100839.25;;;10.67;100.00
44140;BME280;29803;51.048;4.686;2023-12-29T06:52:56;100841.94;;;10.75;100.00
44140;BME280;29803;51.048;4.686;2023-12-29T06:55:26;100831.88;;;10.69;100.00
44140;BME280;29803;51.048;4.686;2023-12-29T06:57:57;100849.50;;;10.72;100.00
44140;BME280;29803;51.048;4.686;2023-12-29T07:00:27;100845.13;;;10.62;100.00
44140;BME280;29803;51.048;4.686;2023-12-29T07:02:58;100838.09;;;10.61;100.00
44140;BME280;29803;51.048;4.686;2023-12-29T07:05:28;100814.25;;;10.58;100.00
44140;BME280;29803;51.048;4.686;2023-12-29T07:07:59;100812.25;;;10.44;100.00
44140;BME280;29803;51.048;4.686;2023-12-29T07:10:30;100808.41;;;10.47;100.00
44140;BME280;29803;51.048;4.686;2023-12-29T07:13:00;100818.94;;;10.48;100.00
44140;BME280;29803;51.048;4.686;2023-12-29T07:15:31;100826.84;;;10.50;100.00
44140;BME280;29803;51.048;4.686;2023-12-29T07:18:01;100816.28;;;10.56;100.00
44140;BME280;29803;51.048;4.686;2023-12-29T07:20:32;100825.00;;;10.58;100.00
44140;BME280;29803;51.048;4.686;2023-12-29T07:23:03;100803.69;;;10.49;100.00
44140;BME280;29803;51.048;4.686;2023-12-29T07:25:33;100806.56;;;10.55;100.00
44140;BME280;29803;51.048;4.686;2023-12-29T07:28:04;100817.97;;;10.66;100.00
44140;BME280;29803;51.048;4.686;2023-12-29T07:30:35;100818.97;;;10.65;100.00
44140;BME280;29803;51.048;4.686;2023-12-29T07:33:06;100821.66;;;10.65;100.00
44140;BME280;29803;51.048;4.686;2023-12-29T07:35:37;100809.56;;;10.52;100.00
44140;BME280;29803;51.048;4.686;2023-12-29T07:38:08;100828.69;;;10.74;100.00
44140;BME280;29803;51.048;4.686;2023-12-29T07:40:38;100818.63;;;10.76;100.00
44140;BME280;29803;51.048;4.686;2023-12-29T07:43:09;100839.25;;;10.83;100.00
44140;BME280;29803;51.048;4.686;2023-12-29T07:45:39;100840.59;;;10.87;100.00
44140;BME280;29803;51.048;4.686;2023-12-29T07:48:10;100834.56;;;10.77;100.00
44140;BME280;29803;51.048;4.686;2023-12-29T07:50:41;100834.06;;;10.74;100.00
44140;BME280;29803;51.048;4.686;2023-12-29T07:53:11;100840.44;;;10.81;100.00
44140;BME280;29803;51.048;4.686;2023-12-29T07:55:43;100845.13;;;10.87;100.00
44140;BME280;29803;51.048;4.686;2023-12-29T07:58:13;100829.53;;;10.66;100.00
44140;BME280;29803;51.048;4.686;2023-12-29T08:00:44;100832.19;;;10.74;100.00
44140;BME280;29803;51.048;4.686;2023-12-29T08:03:16;100848.16;;;10.68;100.00
44140;BME280;29803;51.048;4.686;2023-12-29T08:05:46;100830.88;;;10.62;100.00
44140;BME280;29803;51.048;4.686;2023-12-29T08:08:17;100832.72;;;10.61;100.00
44140;BME280;29803;51.048;4.686;2023-12-29T08:10:47;100831.22;;;10.67;100.00
44140;BME280;29803;51.048;4.686;2023-12-29T08:13:18;100820.47;;;10.67;100.00
44140;BME280;29803;51.048;4.686;2023-12-29T08:15:48;100833.06;;;10.67;100.00
44140;BME280;29803;51.048;4.686;2023-12-29T08:18:19;100831.22;;;10.75;100.00
44140;BME280;29803;51.048;4.686;2023-12-29T08:20:49;100832.38;;;10.81;100.00
44140;BME280;29803;51.048;4.686;2023-12-29T08:23:20;100840.63;;;10.79;100.00
44140;BME280;29803;51.048;4.686;2023-12-29T08:25:50;100846.81;;;10.72;100.00
44140;BME280;29803;51.048;4.686;2023-12-29T08:28:21;100861.91;;;10.65;100.00
44140;BME280;29803;51.048;4.686;2023-12-29T08:30:51;100861.56;;;10.76;100.00
44140;BME280;29803;51.048;4.686;2023-12-29T08:33:22;100857.06;;;10.84;100.00
44140;BME280;29803;51.048;4.686;2023-12-29T08:35:53;100857.88;;;10.85;100.00
44140;BME280;29803;51.048;4.686;2023-12-29T08:38:23;100860.56;;;10.85;100.00
44140;BME280;29803;51.048;4.686;2023-12-29T08:40:54;100868.13;;;10.89;100.00
44140;BME280;29803;51.048;4.686;2023-12-29T08:43:28;100887.41;;;10.85;100.00
44140;BME280;29803;51.048;4.686;2023-12-29T08:45:59;100898.44;;;10.74;100.00
44140;BME280;29803;51.048;4.686;2023-12-29T08:48:30;100892.75;;;10.77;100.00
44140;BME280;29803;51.048;4.686;2023-12-29T08:51:00;100900.31;;;10.81;100.00
44140;BME280;29803;51.048;4.686;2023-12-29T08:53:31;100919.25;;;10.88;100.00
44140;BME280;29803;51.048;4.686;2023-12-29T08:56:05;100921.13;;;10.87;100.00
44140;BME280;29803;51.048;4.686;2023-12-29T08:58:36;100909.03;;;10.75;100.00
44140;BME280;29803;51.048;4.686;2023-12-29T09:01:06;100894.44;;;10.70;100.00
44140;BME280;29803;51.048;4.686;2023-12-29T09:03:37;100899.13;;;10.68;100.00
44140;BME280;29803;51.048;4.686;2023-12-29T09:06:08;100886.88;;;10.65;100.00
44140;BME280;29803;51.048;4.686;2023-12-29T09:08:39;100871.28;;;10.44;100.00
44140;BME280;29803;51.048;4.686;2023-12-29T09:11:09;100873.44;;;10.49;100.00
44140;BME280;29803;51.048;4.686;2023-12-29T09:13:40;100875.63;;;10.45;100.00
44140;BME280;29803;51.048;4.686;2023-12-29T09:16:10;100882.66;;;10.46;100.00
44140;BME280;29803;51.048;4.686;2023-12-29T09:18:41;100887.84;;;10.48;100.00
44140;BME280;29803;51.048;4.686;2023-12-29T09:21:11;100889.38;;;10.58;100.00
44140;BME280;29803;51.048;4.686;2023-12-29T09:23:42;100886.22;;;10.71;100.00
44140;BME280;29803;51.048;4.686;2023-12-29T09:26:13;100885.72;;;10.84;100.00
44140;BME280;29803;51.048;4.686;2023-12-29T09:28:43;100897.78;;;10.88;100.00
44140;BME280;29803;51.048;4.686;2023-12-29T09:31:14;100890.56;;;10.88;100.00
44140;BME280;29803;51.048;4.686;2023-12-29T09:33:45;100884.03;;;10.99;100.00
44140;BME280;29803;51.048;4.686;2023-12-29T09:36:15;100879.69;;;11.06;100.00
44140;BME280;29803;51.048;4.686;2023-12-29T09:38:46;100874.31;;;11.06;100.00
44140;BME280;29803;51.048;4.686;2023-12-29T09:41:17;100892.91;;;11.24;100.00
44140;BME280;29803;51.048;4.686;2023-12-29T09:43:50;100890.22;;;11.40;100.00
44140;BME280;29803;51.048;4.686;2023-12-29T09:46:21;100889.22;;;11.33;100.00
44140;BME280;29803;51.048;4.686;2023-12-29T09:48:55;100876.63;;;11.42;100.00
44140;BME280;29803;51.048;4.686;2023-12-29T09:51:32;100901.81;;;11.41;100.00
44140;BME280;29803;51.048;4.686;2023-12-29T09:54:06;100896.91;;;11.53;100.00
44140;BME280;29803;51.048;4.686;2023-12-29T09:56:38;100888.88;;;11.45;100.00
44140;BME280;29803;51.048;4.686;2023-12-29T09:59:10;100892.38;;;11.53;100.00
44140;BME280;29803;51.048;4.686;2023-12-29T10:01:44;100895.22;;;11.60;100.00
44140;BME280;29803;51.048;4.686;2023-12-29T10:04:15;100887.97;;;11.68;100.00
44140;BME280;29803;51.048;4.686;2023-12-29T10:06:47;100893.00;;;11.72;100.00
44140;BME280;29803;51.048;4.686;2023-12-29T10:09:20;100905.75;;;11.70;100.00
44140;BME280;29803;51.048;4.686;2023-12-29T10:11:51;100902.41;;;11.67;100.00
44140;BME280;29803;51.048;4.686;2023-12-29T10:14:24;100901.44;;;11.52;100.00
44140;BME280;29803;51.048;4.686;2023-12-29T10:17:03;100902.47;;;11.43;100.00
44140;BME280;29803;51.048;4.686;2023-12-29T10:19:39;100904.50;;;11.41;100.00
44140;BME280;29803;51.048;4.686;2023-12-29T10:22:21;100900.13;;;11.32;100.00
44140;BME280;29803;51.048;4.686;2023-12-29T10:24:56;100903.50;;;11.26;100.00
44140;BME280;29803;51.048;4.686;2023-12-29T10:27:27;100917.63;;;11.20;100.00
44140;BME280;29803;51.048;4.686;2023-12-29T10:29:57;100916.78;;;11.11;100.00
44140;BME280;29803;51.048;4.686;2023-12-29T10:32:28;100924.63;;;11.04;100.00
44140;BME280;29803;51.048;4.686;2023-12-29T10:35:10;100933.41;;;11.14;100.00
44140;BME280;29803;51.048;4.686;2023-12-29T10:37:41;100926.50;;;11.12;100.00
44140;BME280;29803;51.048;4.686;2023-12-29T10:40:17;100917.94;;;11.17;100.00
44140;BME280;29803;51.048;4.686;2023-12-29T10:42:53;100917.75;;;11.18;100.00
44140;BME280;29803;51.048;4.686;2023-12-29T10:45:23;100917.09;;;11.24;100.00
44140;BME280;29803;51.048;4.686;2023-12-29T10:47:55;100911.22;;;11.29;100.00
44140;BME280;29803;51.048;4.686;2023-12-29T10:50:25;100912.22;;;11.28;100.00
44140;BME280;29803;51.048;4.686;2023-12-29T10:53:12;100899.66;;;11.20;100.00
44140;BME280;29803;51.048;4.686;2023-12-29T10:55:43;100914.56;;;11.39;100.00
44140;BME280;29803;51.048;4.686;2023-12-29T10:58:16;100892.41;;;11.45;100.00
44140;BME280;29803;51.048;4.686;2023-12-29T11:00:49;100902.31;;;11.45;100.00
44140;BME280;29803;51.048;4.686;2023-12-29T11:03:20;100895.91;;;11.54;100.00
44140;BME280;29803;51.048;4.686;2023-12-29T11:05:58;100893.03;;;11.63;100.00
44140;BME280;29803;51.048;4.686;2023-12-29T11:08:35;100894.03;;;11.71;100.00
44140;BME280;29803;51.048;4.686;2023-12-29T11:11:07;100887.94;;;11.77;100.00
44140;BME280;29803;51.048;4.686;2023-12-29T11:13:38;100894.00;;;11.87;100.00
44140;BME280;29803;51.048;4.686;2023-12-29T11:16:10;100896.19;;;11.83;100.00
44140;BME280;29803;51.048;4.686;2023-12-29T11:18:42;100879.19;;;11.91;100.00
44140;BME280;29803;51.048;4.686;2023-12-29T11:21:13;100902.69;;;11.97;100.00
44140;BME280;29803;51.048;4.686;2023-12-29T11:23:44;100896.16;;;11.91;100.00
44140;BME280;29803;51.048;4.686;2023-12-29T11:26:15;100892.44;;;12.01;100.00
44140;BME280;29803;51.048;4.686;2023-12-29T11:28:47;100897.31;;;12.05;100.00
44140;BME280;29803;51.048;4.686;2023-12-29T11:31:19;100888.72;;;12.02;100.00
44140;BME280;29803;51.048;4.686;2023-12-29T11:33:53;100886.56;;;11.97;100.00
44140;BME280;29803;51.048;4.686;2023-12-29T11:36:33;100880.88;;;11.92;100.00
44140;BME280;29803;51.048;4.686;2023-12-29T11:39:08;100888.53;;;12.11;100.00
44140;BME280;29803;51.048;4.686;2023-12-29T11:41:56;100896.94;;;12.08;100.00
44140;BME280;29803;51.048;4.686;2023-12-29T11:44:28;100895.16;;;11.84;100.00
44140;BME280;29803;51.048;4.686;2023-12-29T11:46:59;100889.59;;;11.94;100.00
44140;BME280;29803;51.048;4.686;2023-12-29T11:49:58;100878.81;;;12.02;100.00
44140;BME280;29803;51.048;4.686;2023-12-29T11:52:33;100860.50;;;11.98;100.00
44140;BME280;29803;51.048;4.686;2023-12-29T11:55:14;100861.34;;;11.98;100.00
44140;BME280;29803;51.048;4.686;2023-12-29T11:57:48;100863.03;;;11.99;100.00
44140;BME280;29803;51.048;4.686;2023-12-29T12:00:18;100859.88;;;11.96;100.00
44140;BME280;29803;51.048;4.686;2023-12-29T12:02:49;100856.25;;;12.11;100.00
44140;BME280;29803;51.048;4.686;2023-12-29T12:05:45;100851.63;;;11.89;100.00
44140;BME280;29803;51.048;4.686;2023-12-29T12:08:34;100863.78;;;11.85;100.00
44140;BME280;29803;51.048;4.686;2023-12-29T12:13:59;100857.81;;;11.98;100.00
44140;BME280;29803;51.048;4.686;2023-12-29T12:19:16;100847.72;;;12.00;100.00
44140;BME280;29803;51.048;4.686;2023-12-29T12:21:48;100857.00;;;11.89;100.00
44140;BME280;29803;51.048;4.686;2023-12-29T12:24:19;100880.06;;;11.83;100.00
44140;BME280;29803;51.048;4.686;2023-12-29T12:26:50;100870.47;;;11.81;100.00
44140;BME280;29803;51.048;4.686;2023-12-29T12:29:21;100872.66;;;11.77;100.00
44140;BME280;29803;51.048;4.686;2023-12-29T12:31:53;100867.97;;;11.71;100.00
44140;BME280;29803;51.048;4.686;2023-12-29T12:34:24;100864.28;;;11.64;100.00
44140;BME280;29803;51.048;4.686;2023-12-29T12:36:54;100863.97;;;11.67;100.00
44140;BME280;29803;51.048;4.686;2023-12-29T12:39:38;100861.66;;;11.56;100.00
44140;BME280;29803;51.048;4.686;2023-12-29T12:42:09;100851.22;;;11.61;100.00
44140;BME280;29803;51.048;4.686;2023-12-29T12:44:41;100856.75;;;11.59;100.00
44140;BME280;29803;51.048;4.686;2023-12-29T12:47:16;100837.66;;;11.46;100.00
44140;BME280;29803;51.048;4.686;2023-12-29T12:49:47;100837.38;;;11.25;100.00
44140;BME280;29803;51.048;4.686;2023-12-29T12:52:18;100834.66;;;11.33;100.00
44140;BME280;29803;51.048;4.686;2023-12-29T12:54:48;100853.28;;;11.43;100.00
44140;BME280;29803;51.048;4.686;2023-12-29T12:57:20;100843.88;;;11.47;100.00
44140;BME280;29803;51.048;4.686;2023-12-29T12:59:53;100835.81;;;11.38;100.00
44140;BME280;29803;51.048;4.686;2023-12-29T13:02:24;100842.41;;;11.28;100.00
44140;BME280;29803;51.048;4.686;2023-12-29T13:04:55;100836.50;;;11.40;100.00
44140;BME280;29803;51.048;4.686;2023-12-29T13:07:26;100823.72;;;11.43;100.00
44140;BME280;29803;51.048;4.686;2023-12-29T13:09:57;100823.72;;;11.43;100.00